sensor_id;sensor_type;location;lat;lon;timestamp;P1;durP1;ratioP1;P2;durP2;ratioP2
29940;SDS011;16801;53.562;10.038;2022-09-28T00:03:12;2.20;;;2.10;;
29940;SDS011;16801;53.562;10.038;2022-09-28T00:06:33;1.73;;;1.60;;
29940;SDS011;16801;53.562;10.038;2022-09-28T00:09:54;1.83;;;1.70;;
29940;SDS011;16801;53.562;10.038;2022-09-28T00:13:16;2.27;;;1.67;;
29940;SDS011;16801;53.562;10.038;2022-09-28T00:16:37;2.40;;;2.27;;
29940;SDS011;16801;53.562;10.038;2022-09-28T00:20:00;3.37;;;2.03;;
29940;SDS011;16801;53.562;10.038;2022-09-28T00:23:23;1.67;;;1.57;;
29940;SDS011;16801;53.562;10.038;2022-09-28T00:26:45;1.87;;;1.73;;
29940;SDS011;16801;53.562;10.038;2022-09-28T00:30:09;1.90;;;1.70;;
29940;SDS011;16801;53.562;10.038;2022-09-28T00:33:35;2.90;;;1.73;;
29940;SDS011;16801;53.562;10.038;2022-09-28T00:36:56;2.77;;;2.00;;
29940;SDS011;16801;53.562;10.038;2022-09-28T00:40:18;2.00;;;1.90;;
29940;SDS011;16801;53.562;10.038;2022-09-28T00:43:39;1.97;;;1.63;;
29940;SDS011;16801;53.562;10.038;2022-09-28T00:47:06;1.53;;;1.43;;
29940;SDS011;16801;53.562;10.038;2022-09-28T00:50:33;4.03;;;2.27;;
29940;SDS011;16801;53.562;10.038;2022-09-28T00:53:57;2.73;;;1.87;;
29940;SDS011;16801;53.562;10.038;2022-09-28T00:57:22;4.97;;;2.07;;
29940;SDS011;16801;53.562;10.038;2022-09-28T01:00:43;1.80;;;1.63;;
29940;SDS011;16801;53.562;10.038;2022-09-28T01:04:05;3.10;;;2.67;;
29940;SDS011;16801;53.562;10.038;2022-09-28T01:07:26;2.63;;;1.90;;
29940;SDS011;16801;53.562;10.038;2022-09-28T01:10:47;2.37;;;2.17;;
29940;SDS011;16801;53.562;10.038;2022-09-28T01:14:12;2.33;;;1.93;;
29940;SDS011;16801;53.562;10.038;2022-09-28T01:17:37;3.03;;;1.83;;
29940;SDS011;16801;53.562;10.038;2022-09-28T01:21:12;2.30;;;1.90;;
29940;SDS011;16801;53.562;10.038;2022-09-28T01:24:38;2.50;;;2.30;;
29940;SDS011;16801;53.562;10.038;2022-09-28T01:28:05;2.50;;;1.73;;
29940;SDS011;16801;53.562;10.038;2022-09-28T01:31:31;3.40;;;2.43;;
29940;SDS011;16801;53.562;10.038;2022-09-28T01:34:56;3.07;;;2.47;;
29940;SDS011;16801;53.562;10.038;2022-09-28T01:38:23;2.33;;;2.13;;
29940;SDS011;16801;53.562;10.038;2022-09-28T01:41:50;2.80;;;2.00;;
29940;SDS011;16801;53.562;10.038;2022-09-28T01:45:17;2.33;;;2.13;;
29940;SDS011;16801;53.562;10.038;2022-09-28T01:48:44;2.07;;;1.97;;
29940;SDS011;16801;53.562;10.038;2022-09-28T01:52:12;6.47;;;2.37;;
29940;SDS011;16801;53.562;10.038;2022-09-28T01:55:37;1.83;;;1.73;;
29940;SDS011;16801;53.562;10.038;2022-09-28T01:59:04;2.23;;;2.03;;
29940;SDS011;16801;53.562;10.038;2022-09-28T02:02:32;2.03;;;1.83;;
29940;SDS011;16801;53.562;10.038;2022-09-28T02:05:58;2.27;;;2.07;;
29940;SDS011;16801;53.562;10.038;2022-09-28T02:09:23;2.53;;;2.33;;
29940;SDS011;16801;53.562;10.038;2022-09-28T02:12:52;2.77;;;2.37;;
29940;SDS011;16801;53.562;10.038;2022-09-28T02:16:18;5.93;;;2.30;;
29940;SDS011;16801;53.562;10.038;2022-09-28T02:19:47;2.80;;;2.60;;
29940;SDS011;16801;53.562;10.038;2022-09-28T02:23:10;2.97;;;1.93;;
29940;SDS011;16801;53.562;10.038;2022-09-28T02:26:34;4.60;;;3.17;;
29940;SDS011;16801;53.562;10.038;2022-09-28T02:29:58;2.10;;;2.00;;
29940;SDS011;16801;53.562;10.038;2022-09-28T02:33:21;4.07;;;2.60;;
29940;SDS011;16801;53.562;10.038;2022-09-28T02:36:47;3.50;;;2.57;;
29940;SDS011;16801;53.562;10.038;2022-09-28T02:40:11;2.17;;;1.93;;
29940;SDS011;16801;53.562;10.038;2022-09-28T02:43:37;4.57;;;2.27;;
29940;SDS011;16801;53.562;10.038;2022-09-28T02:47:11;2.50;;;2.30;;
29940;SDS011;16801;53.562;10.038;2022-09-28T02:50:45;3.30;;;2.70;;
29940;SDS011;16801;53.562;10.038;2022-09-28T02:54:20;2.60;;;2.00;;
29940;SDS011;16801;53.562;10.038;2022-09-28T02:57:55;3.30;;;3.03;;
29940;SDS011;16801;53.562;10.038;2022-09-28T03:01:26;2.67;;;2.33;;
29940;SDS011;16801;53.562;10.038;2022-09-28T03:04:56;3.50;;;3.07;;
29940;SDS011;16801;53.562;10.038;2022-09-28T03:08:26;4.33;;;2.97;;
29940;SDS011;16801;53.562;10.038;2022-09-28T03:11:54;2.93;;;2.70;;
29940;SDS011;16801;53.562;10.038;2022-09-28T03:15:20;3.23;;;2.43;;
29940;SDS011;16801;53.562;10.038;2022-09-28T03:18:42;4.10;;;2.90;;
29940;SDS011;16801;53.562;10.038;2022-09-28T03:22:03;3.87;;;3.03;;
29940;SDS011;16801;53.562;10.038;2022-09-28T03:25:24;3.07;;;2.67;;
29940;SDS011;16801;53.562;10.038;2022-09-28T03:28:47;4.97;;;2.97;;
29940;SDS011;16801;53.562;10.038;2022-09-28T03:32:17;4.10;;;3.63;;
29940;SDS011;16801;53.562;10.038;2022-09-28T03:35:38;4.00;;;3.27;;
29940;SDS011;16801;53.562;10.038;2022-09-28T03:38:59;3.53;;;3.23;;
29940;SDS011;16801;53.562;10.038;2022-09-28T03:42:20;3.87;;;3.53;;
29940;SDS011;16801;53.562;10.038;2022-09-28T03:45:49;2.80;;;2.60;;
29940;SDS011;16801;53.562;10.038;2022-09-28T03:49:11;3.07;;;2.67;;
29940;SDS011;16801;53.562;10.038;2022-09-28T03:52:32;4.73;;;3.03;;
29940;SDS011;16801;53.562;10.038;2022-09-28T03:55:53;4.03;;;3.00;;
29940;SDS011;16801;53.562;10.038;2022-09-28T03:59:14;4.00;;;3.60;;
29940;SDS011;16801;53.562;10.038;2022-09-28T04:02:36;7.43;;;6.63;;
29940;SDS011;16801;53.562;10.038;2022-09-28T04:05:57;8.87;;;7.80;;
29940;SDS011;16801;53.562;10.038;2022-09-28T04:09:18;10.13;;;7.73;;
29940;SDS011;16801;53.562;10.038;2022-09-28T04:12:39;12.63;;;7.30;;
29940;SDS011;16801;53.562;10.038;2022-09-28T04:16:00;10.67;;;7.33;;
29940;SDS011;16801;53.562;10.038;2022-09-28T04:19:27;12.33;;;8.37;;
29940;SDS011;16801;53.562;10.038;2022-09-28T04:23:12;10.80;;;7.50;;
29940;SDS011;16801;53.562;10.038;2022-09-28T04:26:33;15.07;;;9.50;;
29940;SDS011;16801;53.562;10.038;2022-09-28T04:29:55;18.00;;;10.13;;
29940;SDS011;16801;53.562;10.038;2022-09-28T04:33:14;19.13;;;9.10;;
29940;SDS011;16801;53.562;10.038;2022-09-28T04:36:37;18.97;;;8.90;;
29940;SDS011;16801;53.562;10.038;2022-09-28T04:39:58;12.27;;;9.73;;
29940;SDS011;16801;53.562;10.038;2022-09-28T04:43:19;13.57;;;8.47;;
29940;SDS011;16801;53.562;10.038;2022-09-28T04:46:40;17.43;;;7.83;;
29940;SDS011;16801;53.562;10.038;2022-09-28T04:50:39;13.27;;;8.07;;
29940;SDS011;16801;53.562;10.038;2022-09-28T04:54:11;13.20;;;7.43;;
29940;SDS011;16801;53.562;10.038;2022-09-28T04:57:32;12.13;;;7.93;;
29940;SDS011;16801;53.562;10.038;2022-09-28T05:00:56;13.00;;;7.33;;
29940;SDS011;16801;53.562;10.038;2022-09-28T05:04:41;11.73;;;7.77;;
29940;SDS011;16801;53.562;10.038;2022-09-28T05:08:20;14.67;;;8.13;;
29940;SDS011;16801;53.562;10.038;2022-09-28T05:11:43;16.97;;;9.83;;
29940;SDS011;16801;53.562;10.038;2022-09-28T05:15:09;17.23;;;10.83;;
29940;SDS011;16801;53.562;10.038;2022-09-28T05:18:30;16.13;;;9.80;;
29940;SDS011;16801;53.562;10.038;2022-09-28T05:21:56;16.40;;;8.17;;
29940;SDS011;16801;53.562;10.038;2022-09-28T05:25:19;17.00;;;8.90;;
29940;SDS011;16801;53.562;10.038;2022-09-28T05:28:55;13.93;;;8.93;;
29940;SDS011;16801;53.562;10.038;2022-09-28T05:32:34;12.77;;;8.60;;
29940;SDS011;16801;53.562;10.038;2022-09-28T05:36:10;12.67;;;8.63;;
29940;SDS011;16801;53.562;10.038;2022-09-28T05:39:31;13.07;;;7.43;;
29940;SDS011;16801;53.562;10.038;2022-09-28T05:42:52;11.80;;;7.77;;
29940;SDS011;16801;53.562;10.038;2022-09-28T05:46:19;10.03;;;6.97;;
29940;SDS011;16801;53.562;10.038;2022-09-28T05:49:42;10.43;;;6.03;;
29940;SDS011;16801;53.562;10.038;2022-09-28T05:53:05;10.30;;;6.53;;
29940;SDS011;16801;53.562;10.038;2022-09-28T05:56:29;10.57;;;7.70;;
29940;SDS011;16801;53.562;10.038;2022-09-28T05:59:50;9.03;;;6.07;;
29940;SDS011;16801;53.562;10.038;2022-09-28T06:03:12;10.97;;;9.20;;
29940;SDS011;16801;53.562;10.038;2022-09-28T06:06:34;13.57;;;8.57;;
29940;SDS011;16801;53.562;10.038;2022-09-28T06:09:56;11.73;;;8.97;;
29940;SDS011;16801;53.562;10.038;2022-09-28T06:13:31;12.63;;;7.37;;
29940;SDS011;16801;53.562;10.038;2022-09-28T06:16:53;9.80;;;6.90;;
29940;SDS011;16801;53.562;10.038;2022-09-28T06:20:16;11.67;;;7.27;;
29940;SDS011;16801;53.562;10.038;2022-09-28T06:23:48;10.10;;;6.97;;
29940;SDS011;16801;53.562;10.038;2022-09-28T06:27:10;8.37;;;6.00;;
29940;SDS011;16801;53.562;10.038;2022-09-28T06:30:32;11.40;;;6.73;;
29940;SDS011;16801;53.562;10.038;2022-09-28T06:33:57;9.73;;;7.00;;
29940;SDS011;16801;53.562;10.038;2022-09-28T06:37:21;14.20;;;8.53;;
29940;SDS011;16801;53.562;10.038;2022-09-28T06:40:44;10.70;;;7.47;;
29940;SDS011;16801;53.562;10.038;2022-09-28T06:44:05;9.37;;;7.50;;
29940;SDS011;16801;53.562;10.038;2022-09-28T06:47:55;9.20;;;6.83;;
29940;SDS011;16801;53.562;10.038;2022-09-28T06:51:24;9.47;;;7.07;;
29940;SDS011;16801;53.562;10.038;2022-09-28T06:55:01;10.77;;;7.03;;
29940;SDS011;16801;53.562;10.038;2022-09-28T06:58:31;13.93;;;6.00;;
29940;SDS011;16801;53.562;10.038;2022-09-28T07:01:53;10.93;;;8.03;;
29940;SDS011;16801;53.562;10.038;2022-09-28T07:05:39;13.27;;;8.47;;
29940;SDS011;16801;53.562;10.038;2022-09-28T07:09:20;9.70;;;7.77;;
29940;SDS011;16801;53.562;10.038;2022-09-28T07:13:05;12.07;;;6.73;;
29940;SDS011;16801;53.562;10.038;2022-09-28T07:16:32;11.67;;;6.80;;
29940;SDS011;16801;53.562;10.038;2022-09-28T07:19:54;12.07;;;8.83;;
29940;SDS011;16801;53.562;10.038;2022-09-28T07:23:17;9.93;;;7.37;;
29940;SDS011;16801;53.562;10.038;2022-09-28T07:26:56;11.33;;;7.03;;
29940;SDS011;16801;53.562;10.038;2022-09-28T07:30:41;11.10;;;8.33;;
29940;SDS011;16801;53.562;10.038;2022-09-28T07:34:11;13.27;;;10.10;;
29940;SDS011;16801;53.562;10.038;2022-09-28T07:37:48;15.90;;;9.03;;
29940;SDS011;16801;53.562;10.038;2022-09-28T07:41:09;11.80;;;7.83;;
29940;SDS011;16801;53.562;10.038;2022-09-28T07:44:40;15.63;;;9.43;;
29940;SDS011;16801;53.562;10.038;2022-09-28T07:48:03;13.73;;;8.10;;
29940;SDS011;16801;53.562;10.038;2022-09-28T07:51:43;17.90;;;8.20;;
29940;SDS011;16801;53.562;10.038;2022-09-28T07:55:22;14.00;;;9.80;;
29940;SDS011;16801;53.562;10.038;2022-09-28T07:59:04;14.00;;;8.17;;
29940;SDS011;16801;53.562;10.038;2022-09-28T08:02:43;12.70;;;7.53;;
29940;SDS011;16801;53.562;10.038;2022-09-28T08:06:11;9.40;;;7.53;;
29940;SDS011;16801;53.562;10.038;2022-09-28T08:09:34;15.03;;;8.47;;
29940;SDS011;16801;53.562;10.038;2022-09-28T08:13:13;14.53;;;7.97;;
29940;SDS011;16801;53.562;10.038;2022-09-28T08:16:55;10.13;;;7.60;;
29940;SDS011;16801;53.562;10.038;2022-09-28T08:20:34;8.57;;;7.20;;
29940;SDS011;16801;53.562;10.038;2022-09-28T08:24:14;16.03;;;9.80;;
29940;SDS011;16801;53.562;10.038;2022-09-28T08:27:36;15.40;;;12.80;;
29940;SDS011;16801;53.562;10.038;2022-09-28T08:30:59;15.63;;;9.17;;
29940;SDS011;16801;53.562;10.038;2022-09-28T08:34:23;13.70;;;10.53;;
29940;SDS011;16801;53.562;10.038;2022-09-28T08:38:04;14.87;;;10.33;;
29940;SDS011;16801;53.562;10.038;2022-09-28T08:41:47;10.43;;;8.40;;
29940;SDS011;16801;53.562;10.038;2022-09-28T08:45:30;16.70;;;9.53;;
29940;SDS011;16801;53.562;10.038;2022-09-28T08:49:00;16.40;;;11.03;;
29940;SDS011;16801;53.562;10.038;2022-09-28T08:52:52;17.13;;;11.20;;
29940;SDS011;16801;53.562;10.038;2022-09-28T08:56:38;14.90;;;11.00;;
29940;SDS011;16801;53.562;10.038;2022-09-28T09:00:05;13.30;;;8.90;;
29940;SDS011;16801;53.562;10.038;2022-09-28T09:03:31;11.83;;;8.53;;
29940;SDS011;16801;53.562;10.038;2022-09-28T09:07:38;13.13;;;7.27;;
29940;SDS011;16801;53.562;10.038;2022-09-28T09:11:13;12.60;;;8.13;;
29940;SDS011;16801;53.562;10.038;2022-09-28T09:14:53;17.33;;;11.07;;
29940;SDS011;16801;53.562;10.038;2022-09-28T09:18:34;20.17;;;13.40;;
29940;SDS011;16801;53.562;10.038;2022-09-28T09:22:20;14.23;;;10.57;;
29940;SDS011;16801;53.562;10.038;2022-09-28T09:25:49;13.27;;;9.47;;
29940;SDS011;16801;53.562;10.038;2022-09-28T09:29:21;16.23;;;9.87;;
29940;SDS011;16801;53.562;10.038;2022-09-28T09:33:00;15.93;;;9.20;;
29940;SDS011;16801;53.562;10.038;2022-09-28T09:36:56;14.80;;;9.83;;
29940;SDS011;16801;53.562;10.038;2022-09-28T09:40:35;15.67;;;9.50;;
29940;SDS011;16801;53.562;10.038;2022-09-28T09:48:57;16.70;;;10.00;;
29940;SDS011;16801;53.562;10.038;2022-09-28T09:52:21;13.67;;;8.67;;
29940;SDS011;16801;53.562;10.038;2022-09-28T09:55:46;15.10;;;9.17;;
29940;SDS011;16801;53.562;10.038;2022-09-28T09:59:20;10.93;;;7.60;;
29940;SDS011;16801;53.562;10.038;2022-09-28T10:03:14;12.73;;;7.70;;
29940;SDS011;16801;53.562;10.038;2022-09-28T10:06:42;10.73;;;8.03;;
29940;SDS011;16801;53.562;10.038;2022-09-28T10:10:08;10.13;;;7.77;;
29940;SDS011;16801;53.562;10.038;2022-09-28T10:13:39;11.43;;;6.10;;
29940;SDS011;16801;53.562;10.038;2022-09-28T10:17:21;10.13;;;5.90;;
29940;SDS011;16801;53.562;10.038;2022-09-28T10:21:23;9.90;;;5.70;;
29940;SDS011;16801;53.562;10.038;2022-09-28T10:24:54;7.03;;;5.28;;
29940;SDS011;16801;53.562;10.038;2022-09-28T10:28:16;7.90;;;5.40;;
29940;SDS011;16801;53.562;10.038;2022-09-28T10:31:44;5.63;;;4.90;;
29940;SDS011;16801;53.562;10.038;2022-09-28T10:35:38;6.30;;;5.10;;
29940;SDS011;16801;53.562;10.038;2022-09-28T10:39:03;7.70;;;4.55;;
29940;SDS011;16801;53.562;10.038;2022-09-28T10:42:27;6.28;;;5.65;;
29940;SDS011;16801;53.562;10.038;2022-09-28T10:45:58;9.90;;;7.03;;
29940;SDS011;16801;53.562;10.038;2022-09-28T10:49:21;7.55;;;5.20;;
29940;SDS011;16801;53.562;10.038;2022-09-28T10:52:48;6.43;;;4.88;;
29940;SDS011;16801;53.562;10.038;2022-09-28T10:56:29;4.70;;;3.95;;
29940;SDS011;16801;53.562;10.038;2022-09-28T11:00:02;5.50;;;4.32;;
29940;SDS011;16801;53.562;10.038;2022-09-28T11:03:47;4.88;;;4.20;;
29940;SDS011;16801;53.562;10.038;2022-09-28T11:07:15;4.82;;;4.00;;
29940;SDS011;16801;53.562;10.038;2022-09-28T11:10:37;4.53;;;4.07;;
29940;SDS011;16801;53.562;10.038;2022-09-28T11:14:14;5.03;;;4.47;;
29940;SDS011;16801;53.562;10.038;2022-09-28T11:17:48;4.60;;;3.97;;
29940;SDS011;16801;53.562;10.038;2022-09-28T11:21:12;5.45;;;3.90;;
29940;SDS011;16801;53.562;10.038;2022-09-28T11:25:11;6.25;;;4.35;;
29940;SDS011;16801;53.562;10.038;2022-09-28T11:28:39;6.20;;;4.90;;
29940;SDS011;16801;53.562;10.038;2022-09-28T11:32:08;5.50;;;4.45;;
29940;SDS011;16801;53.562;10.038;2022-09-28T11:35:49;7.80;;;4.13;;
29940;SDS011;16801;53.562;10.038;2022-09-28T11:39:15;4.60;;;4.07;;
29940;SDS011;16801;53.562;10.038;2022-09-28T11:42:48;3.85;;;3.50;;
29940;SDS011;16801;53.562;10.038;2022-09-28T11:46:22;6.45;;;3.60;;
29940;SDS011;16801;53.562;10.038;2022-09-28T11:49:58;3.22;;;2.72;;
29940;SDS011;16801;53.562;10.038;2022-09-28T11:53:28;3.55;;;2.63;;
29940;SDS011;16801;53.562;10.038;2022-09-28T11:56:54;6.25;;;2.97;;
29940;SDS011;16801;53.562;10.038;2022-09-28T12:00:20;3.25;;;2.20;;
29940;SDS011;16801;53.562;10.038;2022-09-28T12:03:48;2.65;;;1.60;;
29940;SDS011;16801;53.562;10.038;2022-09-28T12:07:12;2.85;;;2.10;;
29940;SDS011;16801;53.562;10.038;2022-09-28T12:10:39;2.95;;;2.15;;
29940;SDS011;16801;53.562;10.038;2022-09-28T12:14:11;3.35;;;1.65;;
29940;SDS011;16801;53.562;10.038;2022-09-28T12:17:41;1.75;;;1.65;;
29940;SDS011;16801;53.562;10.038;2022-09-28T12:21:08;1.27;;;1.13;;
29940;SDS011;16801;53.562;10.038;2022-09-28T12:24:42;2.60;;;1.45;;
29940;SDS011;16801;53.562;10.038;2022-09-28T12:28:20;1.42;;;1.33;;
29940;SDS011;16801;53.562;10.038;2022-09-28T12:31:51;1.65;;;1.55;;
29940;SDS011;16801;53.562;10.038;2022-09-28T12:35:18;1.63;;;1.15;;
29940;SDS011;16801;53.562;10.038;2022-09-28T12:38:52;1.13;;;1.02;;
29940;SDS011;16801;53.562;10.038;2022-09-28T12:42:27;1.33;;;1.13;;
29940;SDS011;16801;53.562;10.038;2022-09-28T12:46:09;2.10;;;1.83;;
29940;SDS011;16801;53.562;10.038;2022-09-28T12:49:50;2.08;;;1.33;;
29940;SDS011;16801;53.562;10.038;2022-09-28T12:53:25;0.85;;;0.85;;
29940;SDS011;16801;53.562;10.038;2022-09-28T12:57:03;1.25;;;1.00;;
29940;SDS011;16801;53.562;10.038;2022-09-28T13:00:36;2.25;;;1.48;;
29940;SDS011;16801;53.562;10.038;2022-09-28T13:04:14;2.40;;;1.17;;
29940;SDS011;16801;53.562;10.038;2022-09-28T13:07:48;1.38;;;1.27;;
29940;SDS011;16801;53.562;10.038;2022-09-28T13:11:19;1.50;;;0.95;;
29940;SDS011;16801;53.562;10.038;2022-09-28T13:18:38;1.75;;;1.17;;
29940;SDS011;16801;53.562;10.038;2022-09-28T13:22:12;2.08;;;1.10;;
29940;SDS011;16801;53.562;10.038;2022-09-28T13:25:50;0.75;;;0.75;;
29940;SDS011;16801;53.562;10.038;2022-09-28T13:29:16;1.20;;;1.10;;
29940;SDS011;16801;53.562;10.038;2022-09-28T13:32:38;0.73;;;0.68;;
29940;SDS011;16801;53.562;10.038;2022-09-28T13:36:02;4.05;;;1.05;;
29940;SDS011;16801;53.562;10.038;2022-09-28T13:39:48;1.92;;;1.33;;
29940;SDS011;16801;53.562;10.038;2022-09-28T13:43:12;2.38;;;1.30;;
29940;SDS011;16801;53.562;10.038;2022-09-28T13:46:50;0.65;;;0.60;;
29940;SDS011;16801;53.562;10.038;2022-09-28T13:50:35;0.68;;;0.68;;
29940;SDS011;16801;53.562;10.038;2022-09-28T13:54:17;0.75;;;0.38;;
29940;SDS011;16801;53.562;10.038;2022-09-28T13:57:49;0.68;;;0.65;;
29940;SDS011;16801;53.562;10.038;2022-09-28T14:01:16;1.92;;;1.00;;
29940;SDS011;16801;53.562;10.038;2022-09-28T14:04:51;3.45;;;1.20;;
29940;SDS011;16801;53.562;10.038;2022-09-28T14:11:57;0.88;;;0.88;;
29940;SDS011;16801;53.562;10.038;2022-09-28T14:19:11;0.45;;;0.45;;
29940;SDS011;16801;53.562;10.038;2022-09-28T14:22:40;0.80;;;0.60;;
29940;SDS011;16801;53.562;10.038;2022-09-28T14:30:28;0.60;;;0.50;;
29940;SDS011;16801;53.562;10.038;2022-09-28T14:34:21;0.75;;;0.70;;
29940;SDS011;16801;53.562;10.038;2022-09-28T14:37:47;0.88;;;0.50;;
29940;SDS011;16801;53.562;10.038;2022-09-28T14:41:41;0.65;;;0.57;;
29940;SDS011;16801;53.562;10.038;2022-09-28T14:45:18;0.65;;;0.40;;
29940;SDS011;16801;53.562;10.038;2022-09-28T14:48:54;0.40;;;0.35;;
29940;SDS011;16801;53.562;10.038;2022-09-28T14:52:17;3.05;;;0.55;;
29940;SDS011;16801;53.562;10.038;2022-09-28T14:55:56;1.70;;;0.52;;
29940;SDS011;16801;53.562;10.038;2022-09-28T14:59:20;0.80;;;0.68;;
29940;SDS011;16801;53.562;10.038;2022-09-28T15:02:44;2.05;;;0.63;;
29940;SDS011;16801;53.562;10.038;2022-09-28T15:06:12;1.08;;;0.88;;
29940;SDS011;16801;53.562;10.038;2022-09-28T15:09:36;1.35;;;1.25;;
29940;SDS011;16801;53.562;10.038;2022-09-28T15:12:58;1.77;;;1.10;;
29940;SDS011;16801;53.562;10.038;2022-09-28T15:16:21;4.88;;;1.15;;
29940;SDS011;16801;53.562;10.038;2022-09-28T15:19:44;1.20;;;1.10;;
29940;SDS011;16801;53.562;10.038;2022-09-28T15:23:22;1.52;;;0.90;;
29940;SDS011;16801;53.562;10.038;2022-09-28T15:26:47;2.15;;;1.17;;
29940;SDS011;16801;53.562;10.038;2022-09-28T15:30:19;1.10;;;0.93;;
29940;SDS011;16801;53.562;10.038;2022-09-28T15:33:42;0.60;;;0.60;;
29940;SDS011;16801;53.562;10.038;2022-09-28T15:37:21;0.57;;;0.57;;
29940;SDS011;16801;53.562;10.038;2022-09-28T15:40:44;0.43;;;0.43;;
29940;SDS011;16801;53.562;10.038;2022-09-28T15:44:26;0.70;;;0.68;;
29940;SDS011;16801;53.562;10.038;2022-09-28T15:47:50;0.73;;;0.73;;
29940;SDS011;16801;53.562;10.038;2022-09-28T15:51:16;1.75;;;0.70;;
29940;SDS011;16801;53.562;10.038;2022-09-28T15:54:40;1.10;;;1.00;;
29940;SDS011;16801;53.562;10.038;2022-09-28T15:58:06;2.30;;;1.25;;
29940;SDS011;16801;53.562;10.038;2022-09-28T16:01:37;2.22;;;2.00;;
29940;SDS011;16801;53.562;10.038;2022-09-28T16:04:58;1.45;;;0.90;;
29940;SDS011;16801;53.562;10.038;2022-09-28T16:08:21;0.50;;;0.50;;
29940;SDS011;16801;53.562;10.038;2022-09-28T16:11:47;2.65;;;1.27;;
29940;SDS011;16801;53.562;10.038;2022-09-28T16:15:12;1.47;;;1.37;;
29940;SDS011;16801;53.562;10.038;2022-09-28T16:18:39;2.50;;;1.20;;
29940;SDS011;16801;53.562;10.038;2022-09-28T16:22:08;2.47;;;1.43;;
29940;SDS011;16801;53.562;10.038;2022-09-28T16:25:39;1.30;;;1.00;;
29940;SDS011;16801;53.562;10.038;2022-09-28T16:29:22;1.67;;;1.23;;
29940;SDS011;16801;53.562;10.038;2022-09-28T16:32:50;2.27;;;1.80;;
29940;SDS011;16801;53.562;10.038;2022-09-28T16:36:15;1.53;;;1.40;;
29940;SDS011;16801;53.562;10.038;2022-09-28T16:39:36;1.53;;;1.43;;
29940;SDS011;16801;53.562;10.038;2022-09-28T16:42:58;3.67;;;2.37;;
29940;SDS011;16801;53.562;10.038;2022-09-28T16:46:22;2.23;;;1.67;;
29940;SDS011;16801;53.562;10.038;2022-09-28T16:49:50;1.70;;;1.53;;
29940;SDS011;16801;53.562;10.038;2022-09-28T16:53:12;2.03;;;1.70;;
29940;SDS011;16801;53.562;10.038;2022-09-28T16:56:53;4.17;;;1.80;;
29940;SDS011;16801;53.562;10.038;2022-09-28T17:00:14;3.53;;;3.17;;
29940;SDS011;16801;53.562;10.038;2022-09-28T17:03:39;3.13;;;2.00;;
29940;SDS011;16801;53.562;10.038;2022-09-28T17:07:04;3.23;;;2.23;;
29940;SDS011;16801;53.562;10.038;2022-09-28T17:10:28;3.50;;;2.00;;
29940;SDS011;16801;53.562;10.038;2022-09-28T17:13:53;2.80;;;1.70;;
29940;SDS011;16801;53.562;10.038;2022-09-28T17:17:17;2.60;;;2.10;;
29940;SDS011;16801;53.562;10.038;2022-09-28T17:20:37;2.47;;;2.27;;
29940;SDS011;16801;53.562;10.038;2022-09-28T17:24:00;3.97;;;2.10;;
29940;SDS011;16801;53.562;10.038;2022-09-28T17:27:22;3.60;;;3.23;;
29940;SDS011;16801;53.562;10.038;2022-09-28T17:30:43;3.20;;;2.87;;
29940;SDS011;16801;53.562;10.038;2022-09-28T17:34:04;2.73;;;2.00;;
29940;SDS011;16801;53.562;10.038;2022-09-28T17:37:25;4.43;;;3.43;;
29940;SDS011;16801;53.562;10.038;2022-09-28T17:40:46;5.17;;;2.80;;
29940;SDS011;16801;53.562;10.038;2022-09-28T17:44:09;5.93;;;3.67;;
29940;SDS011;16801;53.562;10.038;2022-09-28T17:47:33;4.50;;;3.43;;
29940;SDS011;16801;53.562;10.038;2022-09-28T17:50:54;3.70;;;3.27;;
29940;SDS011;16801;53.562;10.038;2022-09-28T17:54:15;5.13;;;3.43;;
29940;SDS011;16801;53.562;10.038;2022-09-28T17:57:38;3.80;;;3.10;;
29940;SDS011;16801;53.562;10.038;2022-09-28T18:01:01;5.07;;;3.80;;
29940;SDS011;16801;53.562;10.038;2022-09-28T18:04:22;7.17;;;4.53;;
29940;SDS011;16801;53.562;10.038;2022-09-28T18:07:43;8.63;;;5.97;;
29940;SDS011;16801;53.562;10.038;2022-09-28T18:11:04;13.03;;;5.07;;
29940;SDS011;16801;53.562;10.038;2022-09-28T18:14:25;7.63;;;4.57;;
29940;SDS011;16801;53.562;10.038;2022-09-28T18:17:48;6.17;;;5.20;;
29940;SDS011;16801;53.562;10.038;2022-09-28T18:21:09;5.73;;;5.10;;
29940;SDS011;16801;53.562;10.038;2022-09-28T18:24:30;7.63;;;6.10;;
29940;SDS011;16801;53.562;10.038;2022-09-28T18:27:51;11.03;;;6.00;;
29940;SDS011;16801;53.562;10.038;2022-09-28T18:31:15;4.73;;;4.20;;
29940;SDS011;16801;53.562;10.038;2022-09-28T18:34:38;5.43;;;4.30;;
29940;SDS011;16801;53.562;10.038;2022-09-28T18:37:59;5.83;;;5.13;;
29940;SDS011;16801;53.562;10.038;2022-09-28T18:41:20;10.30;;;5.60;;
29940;SDS011;16801;53.562;10.038;2022-09-28T18:44:41;7.13;;;5.63;;
29940;SDS011;16801;53.562;10.038;2022-09-28T18:48:01;5.83;;;4.33;;
29940;SDS011;16801;53.562;10.038;2022-09-28T18:51:24;9.97;;;6.47;;
29940;SDS011;16801;53.562;10.038;2022-09-28T18:54:44;10.23;;;7.17;;
29940;SDS011;16801;53.562;10.038;2022-09-28T18:58:06;7.13;;;5.53;;
29940;SDS011;16801;53.562;10.038;2022-09-28T19:01:28;9.30;;;5.90;;
29940;SDS011;16801;53.562;10.038;2022-09-28T19:04:49;10.53;;;5.80;;
29940;SDS011;16801;53.562;10.038;2022-09-28T19:08:11;8.70;;;5.00;;
29940;SDS011;16801;53.562;10.038;2022-09-28T19:11:31;8.43;;;3.80;;
29940;SDS011;16801;53.562;10.038;2022-09-28T19:14:52;6.33;;;4.50;;
29940;SDS011;16801;53.562;10.038;2022-09-28T19:18:13;8.27;;;5.67;;
29940;SDS011;16801;53.562;10.038;2022-09-28T19:21:34;5.37;;;4.27;;
29940;SDS011;16801;53.562;10.038;2022-09-28T19:24:56;6.23;;;5.53;;
29940;SDS011;16801;53.562;10.038;2022-09-28T19:28:17;6.23;;;5.00;;
29940;SDS011;16801;53.562;10.038;2022-09-28T19:31:38;6.90;;;4.87;;
29940;SDS011;16801;53.562;10.038;2022-09-28T19:34:59;5.10;;;4.60;;
29940;SDS011;16801;53.562;10.038;2022-09-28T19:38:20;9.03;;;6.50;;
29940;SDS011;16801;53.562;10.038;2022-09-28T19:41:43;6.83;;;5.33;;
29940;SDS011;16801;53.562;10.038;2022-09-28T19:45:07;7.43;;;6.70;;
29940;SDS011;16801;53.562;10.038;2022-09-28T19:48:29;9.77;;;4.87;;
29940;SDS011;16801;53.562;10.038;2022-09-28T19:51:51;8.63;;;5.93;;
29940;SDS011;16801;53.562;10.038;2022-09-28T19:55:14;6.77;;;5.70;;
29940;SDS011;16801;53.562;10.038;2022-09-28T19:58:38;7.87;;;6.30;;
29940;SDS011;16801;53.562;10.038;2022-09-28T20:01:59;9.13;;;6.20;;
29940;SDS011;16801;53.562;10.038;2022-09-28T20:05:20;7.10;;;4.87;;
29940;SDS011;16801;53.562;10.038;2022-09-28T20:08:41;11.57;;;6.13;;
29940;SDS011;16801;53.562;10.038;2022-09-28T20:12:02;7.60;;;5.73;;
29940;SDS011;16801;53.562;10.038;2022-09-28T20:15:25;9.33;;;6.30;;
29940;SDS011;16801;53.562;10.038;2022-09-28T20:18:46;7.23;;;5.47;;
29940;SDS011;16801;53.562;10.038;2022-09-28T20:22:08;7.73;;;5.73;;
29940;SDS011;16801;53.562;10.038;2022-09-28T20:25:30;7.80;;;6.10;;
29940;SDS011;16801;53.562;10.038;2022-09-28T20:28:51;11.23;;;7.37;;
29940;SDS011;16801;53.562;10.038;2022-09-28T20:32:13;5.73;;;4.80;;
29940;SDS011;16801;53.562;10.038;2022-09-28T20:35:34;5.53;;;4.47;;
29940;SDS011;16801;53.562;10.038;2022-09-28T20:38:56;6.63;;;5.20;;
29940;SDS011;16801;53.562;10.038;2022-09-28T20:42:20;6.07;;;5.43;;
29940;SDS011;16801;53.562;10.038;2022-09-28T20:45:41;6.90;;;6.17;;
29940;SDS011;16801;53.562;10.038;2022-09-28T20:49:04;6.00;;;4.73;;
29940;SDS011;16801;53.562;10.038;2022-09-28T20:52:26;6.03;;;5.23;;